Metar Aviation Weather Data KOMA

57°F Temp
55°F Dewpoint
% Humidity
Temperature
16 MPH
26 KM/H
14 KTS
10°
Due North

Wind Speed
Thunderstorm
Conditions
Pressure 1016.92 (hPa) - 30.03 (in)
Visibility 9.0 (mi) - 14 (km)

Current Conditions
KOMA
Metar :KOMA 240418Z 01014KT 9SM -TSRA BKN037CB OVC110 14/13 A3003 RMK AO2 LTG DSNT ALQDS TSB12 FRQ LTGICCCCG ALQDS TS SW MOV NE P0005 T01440128
Thu 23rd May 23:18 pm

  Metar Aviation API Data Provided by https://www.checkwx.com/ PHP scripts by weather34.com ©2019